Latest Weather Observations for Naracoorte

IDS60801

Issued at 11:31 pm CDT Tuesday 28 January 2020 (issued every 10 minutes, with the page automatically refreshed every 10 minutes)

About weather observations | Map of weather stations | Latest weather observations for SA | Other Formats
Station Details ID: 026099 Name: NARACOORTE AERODROME Lat: -36.98 Lon: 140.73 Height: 49.72 m
Data from the previous 72 hours. | See also: Recent months at Naracoorte
Date/Time
CDT
Temp
°C
App
Temp
°C
Dew
Point
°C
Rel
Hum
%
Delta-T
°C
Wind Press
QNH
hPa
Press
MSL
hPa
Rain since
9am
mm
Dir  Spd
km/h
Gust
km/h
Spd
kts
Gust
kts
28/11:30pm 12.8 11.0 10.7 87 1.1 SE 11 13 6 7 1016.7 1016.6 0.0
28/11:00pm 13.3 11.5 10.8 85 1.3 SSE 11 13 6 7 1017.3 1017.1 0.0
28/10:30pm 14.7 12.9 12.0 84 1.5 S 13 17 7 9 1017.4 1017.2 0.0
28/10:00pm 15.0 13.4 11.4 79 1.9 SSE 11 15 6 8 1017.2 1017.0 0.0
28/09:30pm 16.4 14.5 11.8 74 2.5 S 13 15 7 8 1017.1 1016.9 0.0
28/09:00pm 18.1 16.3 12.1 68 3.3 SSW 13 17 7 9 1016.7 1016.6 0.0
28/08:30pm 19.9 17.4 12.2 61 4.3 SSW 17 20 9 11 1016.3 1016.2 0.0
28/08:00pm 22.1 19.0 12.1 53 5.6 SSW 20 26 11 14 1016.1 1016.0 0.0
28/07:30pm 23.9 20.6 11.6 46 6.9 SSW 20 26 11 14 1015.6 1015.5 0.0
28/07:00pm 25.3 21.4 10.7 40 8.2 SW 22 30 12 16 1015.3 1015.2 0.0
28/06:30pm 26.5 22.2 9.4 34 9.4 SW 22 32 12 17 1015.1 1015.0 0.0
28/06:00pm 27.2 22.8 9.1 32 10.0 SW 22 32 12 17 1014.8 1014.7 0.0
28/05:30pm 27.9 23.8 8.7 30 10.5 SW 20 32 11 17 1014.6 1014.5 0.0
28/05:00pm 28.2 23.7 8.5 29 10.8 SW 22 30 12 16 1014.6 1014.5 0.0
28/04:30pm 28.2 24.2 9.0 30 10.6 SW 20 30 11 16 1014.6 1014.5 0.0
28/04:00pm 27.9 23.6 9.2 31 10.3 SW 22 39 12 21 1014.7 1014.6 0.0
28/03:30pm 29.1 24.5 9.8 30 10.8 SW 24 33 13 18 1014.8 1014.7 0.0
28/03:00pm 28.0 23.6 8.8 30 10.5 WSW 22 33 12 18 1015.0 1014.9 0.0
28/02:30pm 28.9 24.9 9.1 29 11.0 SW 20 35 11 19 1015.2 1015.1 0.0
28/02:00pm 28.3 24.4 8.6 29 10.8 SW 19 35 10 19 1015.5 1015.4 0.0
28/01:30pm 28.4 25.2 10.1 32 10.3 W 17 33 9 18 1015.7 1015.6 0.0
28/01:00pm 25.6 21.6 9.0 35 9.0 SW 20 32 11 17 1015.9 1015.8 0.0
28/12:30pm 25.3 22.3 9.2 36 8.8 WSW 15 22 8 12 1016.3 1016.2 0.0
28/12:00pm 24.5 21.4 8.9 37 8.4 W 15 24 8 13 1016.6 1016.5 0.0
28/11:30am 22.9 20.6 10.3 45 6.9 SW 13 22 7 12 1016.9 1016.7 0.0
28/11:00am 20.8 19.5 11.2 54 5.3 SSW 9 15 5 8 1016.9 1016.7 0.0
28/10:30am 20.3 18.6 12.5 61 4.4 SSW 13 20 7 11 1017.2 1017.0 0.0
28/10:00am 19.1 17.4 12.6 66 3.6 SSW 13 19 7 10 1017.5 1017.3 0.0
28/09:30am 17.7 16.9 12.8 73 2.7 SW 9 17 5 9 1017.5 1017.3 0.0
28/09:00am 15.2 15.6 12.5 84 1.5 W 2 6 1 3 1017.6 1017.4 0.0
28/08:30am 12.9 13.3 11.3 90 0.8 CALM 0 0 0 0 1017.6 1017.4 0.0
28/08:00am 11.6 11.8 10.5 93 0.6 CALM 0 0 0 0 1017.0 1016.8 0.0
28/07:30am 10.5 10.4 9.4 93 0.5 CALM 0 0 0 0 1016.5 1016.4 0.0
28/07:00am 9.4 9.0 8.3 93 0.5 CALM 0 0 0 0 1016.3 1016.2 0.0
28/06:30am 8.1 7.4 7.0 93 0.5 CALM 0 0 0 0 1016.1 1016.0 0.0
28/06:00am 8.6 8.0 7.4 92 0.6 CALM 0 0 0 0 1015.7 1015.6 0.0
28/05:30am 8.5 7.9 7.3 92 0.6 CALM 0 0 0 0 1015.3 1015.2 0.0
28/05:00am 8.8 8.2 7.4 91 0.7 CALM 0 0 0 0 1015.4 1015.3 0.0
28/04:30am 9.5 7.9 7.9 90 0.8 N 6 7 3 4 1015.3 1015.2 0.0
28/04:00am 9.4 8.9 7.8 90 0.8 CALM 0 0 0 0 1015.3 1015.2 0.0
28/03:30am 9.8 9.4 8.1 89 0.8 CALM 0 0 0 0 1015.6 1015.5 0.0
28/03:00am 9.4 8.8 7.3 87 1.0 CALM 0 0 0 0 1015.9 1015.8 0.0
28/02:30am 10.9 10.7 9.2 89 0.8 CALM 0 0 0 0 1015.8 1015.7 0.0
28/02:00am 10.0 7.8 7.9 87 1.0 SSE 9 9 5 5 1016.4 1016.3 0.0
28/01:30am 10.5 9.0 8.3 86 1.1 SE 6 7 3 4 1016.3 1016.2 0.0
28/01:00am 10.6 8.5 8.4 86 1.1 SE 9 9 5 5 1016.4 1016.3 0.0
28/12:30am 11.3 8.6 8.9 85 1.2 S 13 13 7 7 1016.7 1016.6 0.0
28/12:00am 11.0 8.5 8.2 83 1.4 SSE 11 11 6 6 1016.6 1016.5 0.0
 
Date/Time
CDT
Temp
°C
App
Temp
°C
Dew
Point
°C
Rel
Hum
%
Delta-T
°C
Wind Press
QNH
hPa
Press
MSL
hPa
Rain since
9am
mm
Dir  Spd
km/h
Gust
km/h
Spd
kts
Gust
kts
27/11:30pm 11.7 9.7 8.6 81 1.5 S 9 11 5 6 1016.7 1016.6 0.0
27/11:00pm 12.4 10.5 8.9 79 1.8 SSE 9 9 5 5 1016.6 1016.5 0.0
27/10:30pm 12.7 11.2 8.6 76 2.0 SSE 6 9 3 5 1016.5 1016.4 0.0
27/10:00pm 13.5 11.5 8.6 72 2.5 S 9 11 5 6 1016.7 1016.6 0.0
27/09:30pm 15.3 12.4 9.7 69 2.9 SSW 15 19 8 10 1016.4 1016.3 0.0
27/09:00pm 15.8 12.8 9.2 65 3.4 SW 15 17 8 9 1015.8 1015.7 0.0
27/08:30pm 17.8 14.1 9.4 58 4.4 SW 19 24 10 13 1015.4 1015.3 0.0
27/08:00pm 19.5 14.8 9.1 51 5.5 SSW 24 30 13 16 1015.3 1015.2 0.0
27/07:30pm 21.0 16.0 9.6 48 6.1 SW 26 33 14 18 1015.0 1014.9 0.0
27/07:00pm 22.6 18.4 9.7 44 7.0 SSW 22 32 12 17 1014.7 1014.6 0.0
27/06:30pm 23.4 18.6 8.7 39 7.9 SSW 24 33 13 18 1014.4 1014.3 0.0
27/06:00pm 24.2 19.0 7.4 34 8.8 SW 24 32 13 17 1014.2 1014.1 0.0
27/05:30pm 25.5 21.1 7.6 32 9.5 SW 20 28 11 15 1014.4 1014.3 0.0
27/05:00pm 25.2 21.1 7.8 33 9.3 SW 19 30 10 16 1014.2 1014.1 0.0
27/04:30pm 25.4 21.3 8.8 35 9.0 SW 20 30 11 16 1014.2 1014.1 0.0
27/04:00pm 25.3 21.1 8.3 34 9.1 SW 20 32 11 17 1014.4 1014.3 0.0
27/03:30pm 25.7 21.6 8.7 34 9.2 SW 20 33 11 18 1014.6 1014.5 0.0
27/03:00pm 25.4 20.4 8.0 33 9.3 SSW 24 35 13 19 1014.8 1014.7 0.0
27/02:30pm 24.9 20.9 8.4 35 8.9 SW 19 30 10 16 1014.8 1014.7 0.0
27/02:00pm 23.7 19.6 7.8 36 8.4 WSW 19 28 10 15 1015.2 1015.1 0.0
27/01:30pm 22.8 19.9 8.1 39 7.7 SW 13 28 7 15 1015.5 1015.4 0.0
27/01:00pm 22.5 19.8 10.3 46 6.7 SW 15 26 8 14 1015.9 1015.8 0.0
27/12:30pm 21.8 18.2 9.7 46 6.5 SW 19 28 10 15 1016.4 1016.3 0.0
27/12:00pm 21.4 19.1 10.6 50 5.9 S 13 20 7 11 1016.0 1015.9 0.0
27/11:30am 19.7 17.3 10.1 54 5.2 SSW 13 20 7 11 1016.2 1016.1 0.0
27/11:00am 19.8 18.0 11.0 57 4.8 SW 11 20 6 11 1016.5 1016.4 0.0
27/10:30am 18.9 16.3 10.7 59 4.4 SW 15 20 8 11 1016.7 1016.6 0.0
27/10:00am 18.2 14.5 10.3 60 4.2 SW 20 30 11 16 1017.4 1017.2 0.0
27/09:30am 17.2 13.7 10.3 64 3.7 SSW 19 28 10 15 1017.8 1017.6 0.0
27/09:00am 15.5 16.3 12.6 83 1.6 CALM 0 0 0 0 1017.3 1017.1 0.2
27/08:30am 12.4 12.8 11.1 92 0.7 CALM 0 0 0 0 1016.6 1016.5 0.2
27/08:00am 11.4 10.5 10.5 94 0.5 SW 6 7 3 4 1016.7 1016.6 0.2
27/07:30am 10.4 10.4 9.8 96 0.3 CALM 0 0 0 0 1015.9 1015.8 0.2
27/07:00am 7.8 7.2 7.2 96 0.3 CALM 0 0 0 0 1016.0 1015.9 0.2
27/06:30am 6.9 5.2 6.0 94 0.4 NNE 4 9 2 5 1016.0 1015.9 0.2
27/06:00am 7.2 5.3 6.5 95 0.3 ENE 6 9 3 5 1015.3 1015.2 0.2
27/05:30am 6.3 5.3 5.6 95 0.3 CALM 0 6 0 3 1015.5 1015.4 0.2
27/05:00am 6.9 5.2 6.0 94 0.4 E 4 6 2 3 1015.6 1015.5 0.2
27/04:30am 6.3 5.2 5.3 93 0.4 CALM 0 7 0 4 1015.8 1015.7 0.2
27/04:00am 6.5 4.3 5.5 93 0.4 S 6 7 3 4 1015.4 1015.3 0.2
27/03:30am 7.6 6.8 6.5 93 0.5 CALM 0 0 0 0 1015.6 1015.5 0.2
27/03:00am 9.0 8.5 7.9 93 0.5 CALM 0 0 0 0 1016.0 1015.9 0.2
27/02:30am 8.0 6.5 6.8 92 0.6 SE 4 6 2 3 1015.9 1015.8 0.2
27/02:00am 8.7 8.1 7.2 90 0.7 CALM 0 0 0 0 1016.1 1016.0 0.2
27/01:30am 10.1 9.7 8.4 89 0.8 CALM 0 0 0 0 1015.9 1015.8 0.2
27/01:00am 10.9 10.7 9.0 88 0.9 CALM 0 2 0 1 1016.0 1015.9 0.2
27/12:30am 11.4 10.2 9.7 89 0.9 ESE 6 7 3 4 1016.1 1016.0 0.2
27/12:00am 11.3 9.5 9.6 89 0.9 SSE 9 11 5 6 1016.4 1016.3 0.2
 
Date/Time
CDT
Temp
°C
App
Temp
°C
Dew
Point
°C
Rel
Hum
%
Delta-T
°C
Wind Press
QNH
hPa
Press
MSL
hPa
Rain since
9am
mm
Dir  Spd
km/h
Gust
km/h
Spd
kts
Gust
kts
26/11:30pm 11.7 9.3 9.9 89 0.9 S 13 15 7 8 1016.3 1016.2 0.2
26/11:00pm 11.6 9.4 9.2 85 1.2 S 11 13 6 7 1016.4 1016.3 0.2
26/10:30pm 12.7 11.4 9.3 80 1.7 SSE 6 6 3 3 1016.4 1016.3 0.2
26/10:00pm 13.6 12.2 9.6 77 2.1 SE 7 9 4 5 1016.4 1016.3 0.2
26/09:30pm 14.0 11.5 9.8 76 2.2 SSW 13 13 7 7 1016.4 1016.3 0.2
26/09:00pm 15.3 12.9 10.1 71 2.7 SSW 13 17 7 9 1016.4 1016.3 0.2
26/08:30pm 16.8 14.1 10.2 65 3.5 SSW 15 19 8 10 1016.2 1016.1 0.2
26/08:00pm 18.3 14.7 10.4 60 4.2 SW 20 26 11 14 1015.9 1015.8 0.2
26/07:30pm 19.2 14.7 9.9 55 5.0 SW 24 33 13 18 1015.6 1015.5 0.2
26/07:00pm 20.0 14.8 10.4 54 5.2 SW 28 32 15 17 1015.3 1015.2 0.2
26/06:30pm 21.4 16.0 10.9 51 5.8 SW 30 39 16 21 1015.0 1014.9 0.2
26/06:00pm 22.8 19.1 10.3 45 6.9 SW 20 30 11 16 1014.6 1014.5 0.2
26/05:30pm 23.2 19.2 10.6 45 7.0 SSW 22 30 12 16 1014.4 1014.3 0.2
26/05:00pm 23.6 19.6 10.6 44 7.2 SSW 22 35 12 19 1014.4 1014.3 0.2
26/04:30pm 23.9 19.9 10.6 43 7.4 SSW 22 33 12 18 1014.4 1014.3 0.2
26/04:00pm 24.4 21.0 10.7 42 7.6 WSW 19 26 10 14 1014.2 1014.1 0.2
26/03:30pm 24.1 20.4 10.0 41 7.7 WSW 20 32 11 17 1014.5 1014.4 0.2
26/03:00pm 23.2 20.0 11.3 47 6.7 WSW 19 28 10 15 1014.9 1014.8 0.2
26/02:30pm 23.6 20.6 12.6 50 6.3 SW 20 33 11 18 1015.1 1015.0 0.2
26/02:00pm 22.8 19.8 12.1 51 6.1 WSW 19 28 10 15 1015.3 1015.2 0.2
26/01:30pm 22.6 20.3 14.7 61 4.7 SW 20 26 11 14 1015.6 1015.5 0.2
26/01:00pm 21.3 17.4 14.5 65 4.0 WSW 28 35 15 19 1015.9 1015.8 0.2
26/12:30pm 20.0 17.6 16.4 80 2.2 SW 24 33 13 18 1016.1 1016.0 0.2
26/12:00pm 19.0 16.3 17.5 91 0.9 WSW 28 39 15 21 1016.3 1016.2 0.2
26/11:30am 21.2 19.1 15.3 69 3.5 WSW 20 32 11 17 1016.0 1015.9 0.0
26/11:00am 19.5 17.9 16.5 83 1.8 W 20 28 11 15 1016.1 1016.0 0.0
26/10:30am 18.3 16.5 16.1 87 1.3 WSW 20 30 11 16 1016.1 1016.0 0.0
26/10:00am 18.9 17.7 16.0 83 1.7 W 17 22 9 12 1015.8 1015.7 0.0
26/09:30am 18.1 17.9 16.8 92 0.8 W 13 19 7 10 1015.8 1015.7 0.0
26/09:00am 17.0 15.3 15.7 92 0.8 WNW 19 24 10 13 1016.0 1015.9 0.0
26/08:30am 16.8 15.9 15.8 94 0.6 WNW 15 17 8 9 1015.4 1015.3 0.0
26/08:00am 16.9 16.8 16.1 95 0.5 WNW 11 17 6 9 1015.0 1014.9 0.0
26/07:30am 16.4 15.4 15.6 95 0.5 NW 15 17 8 9 1015.0 1014.9 0.0
26/07:00am 16.1 15.3 15.1 94 0.6 NW 13 17 7 9 1014.5 1014.4 0.0
26/06:30am 16.0 15.5 14.9 93 0.6 NNW 11 13 6 7 1014.2 1014.1 0.0
26/06:00am 15.8 15.6 14.7 93 0.6 WNW 9 11 5 6 1014.4 1014.3 0.0
26/05:30am 15.9 16.1 14.8 93 0.6 WNW 7 9 4 5 1014.2 1014.1 0.0
26/05:00am 15.7 15.8 14.4 92 0.7 W 7 9 4 5 1014.1 1014.0 0.0
26/04:30am 16.3 15.7 14.7 90 0.9 WSW 11 15 6 8 1013.9 1013.8 0.0
26/04:00am 16.5 15.5 14.7 89 1.0 SW 13 19 7 10 1013.6 1013.5 0.0
26/03:30am 16.7 15.7 14.7 88 1.2 WSW 13 17 7 9 1013.6 1013.5 0.0
26/03:00am 16.8 16.2 14.6 87 1.3 W 11 15 6 8 1013.4 1013.3 0.0
26/02:30am 16.9 16.3 14.7 87 1.3 WSW 11 13 6 7 1013.6 1013.5 0.0
26/02:00am 17.0 16.8 14.8 87 1.3 WSW 9 11 5 6 1013.6 1013.5 0.0
26/01:30am 17.1 16.1 14.7 86 1.4 SW 13 15 7 8 1013.9 1013.8 0.0
26/01:00am 17.3 16.4 14.8 85 1.4 SW 13 17 7 9 1014.3 1014.2 0.0
26/12:30am 17.5 17.4 15.0 85 1.5 W 9 9 5 5 1014.3 1014.2 0.0
26/12:00am 17.4 17.3 15.0 86 1.4 WNW 9 11 5 6 1014.4 1014.3 0.0

Other formats

Comma delimited format used in spreadsheet applications
http://www.bom.gov.au/fwo/IDS60801/IDS60801.94820.axf

JavaScript Object Notation format (JSON) in row-major order
http://www.bom.gov.au/fwo/IDS60801/IDS60801.94820.json

Data quality

Most of these data are generated automatically and are frequently updated. Quality checks on data are not normally performed. It is possible for incorrect values to appear. Refer to information at About Latest Weather Observations and please check the disclaimer before using these data.